Time;durP1;ratioP1;P1;durP2;ratioP2;P2;SDS_P1;SDS_P2;PMS_P1;PMS_P2;Temp;Humidity;BMP_temperature;BMP_pressure;BME280_temperature;BME280_humidity;BME280_pressure;Samples;Min_cycle;Max_cycle;Signal;HPM_P1;HPM_P2
2022/01/11 00:01:48;;;;;;;13.33;9.50;;;;;;;3.76;86.69;96354.69;4323336;32;20275;-60
2022/01/11 00:04:17;;;;;;;11.57;10.03;;;;;;;3.70;86.93;96361.66;4324800;32;20195;-60
2022/01/11 00:06:49;;;;;;;12.67;9.40;;;;;;;3.70;86.46;96358.22;4344936;32;20192;-60
2022/01/11 00:12:12;;;;;;;11.77;9.40;;;;;;;3.73;86.90;96368.28;4337435;32;20372;-60
2022/01/11 00:14:39;;;;;;;10.87;9.77;;;;;;;3.71;86.77;96363.25;4344594;32;20291;-61
2022/01/11 00:17:11;;;;;;;14.87;10.50;;;;;;;3.65;87.28;96360.72;4335179;32;20284;-61
2022/01/11 00:19:36;;;;;;;13.53;10.30;;;;;;;3.71;86.99;96365.06;4349762;32;20343;-61
2022/01/11 00:22:07;;;;;;;10.50;9.40;;;;;;;3.69;87.07;96370.53;4344645;32;20278;-60
2022/01/11 00:24:35;;;;;;;12.83;10.80;;;;;;;3.52;87.67;96372.19;4360431;32;20249;-61
2022/01/11 00:27:07;;;;;;;11.73;10.03;;;;;;;3.53;88.08;96378.25;4349657;32;20308;-61
2022/01/11 00:29:48;;;;;;;14.67;10.40;;;;;;;3.75;87.71;96379.31;4338238;32;20266;-60
2022/01/11 00:32:17;;;;;;;12.93;10.47;;;;;;;3.90;86.25;96378.91;4356506;32;20280;-60
2022/01/11 00:34:51;;;;;;;15.47;11.60;;;;;;;3.73;87.05;96384.00;4362674;32;20390;-60
2022/01/11 00:37:22;;;;;;;13.37;10.90;;;;;;;3.91;86.50;96385.78;4337505;32;20295;-60
2022/01/11 00:39:50;;;;;;;11.90;10.07;;;;;;;3.95;86.40;96386.94;4329919;32;20357;-60
2022/01/11 00:42:24;;;;;;;13.33;9.50;;;;;;;3.85;86.29;96387.47;4330149;32;20286;-60
2022/01/11 00:44:51;;;;;;;16.87;10.13;;;;;;;3.81;86.91;96394.19;4369487;32;20270;-61
2022/01/11 00:47:17;;;;;;;11.47;10.27;;;;;;;3.92;86.35;96396.06;4361617;32;20379;-61
2022/01/11 00:49:43;;;;;;;14.43;10.43;;;;;;;3.91;86.22;96399.69;4335998;32;20296;-61
2022/01/11 00:52:08;;;;;;;10.83;9.60;;;;;;;3.79;86.87;96398.84;4338095;32;20274;-61
2022/01/11 00:54:35;;;;;;;14.77;10.67;;;;;;;3.86;86.65;96402.19;4313941;32;20174;-61
2022/01/11 00:57:01;;;;;;;11.20;9.77;;;;;;;3.64;87.07;96406.31;4316508;32;20304;-60
2022/01/11 00:59:29;;;;;;;13.67;11.87;;;;;;;3.58;87.44;96409.84;4353041;32;20264;-60
2022/01/11 01:01:54;;;;;;;12.37;9.67;;;;;;;3.58;87.86;96408.00;4334069;32;20254;-60
2022/01/11 01:04:21;;;;;;;13.10;10.60;;;;;;;3.49;88.55;96416.41;4329881;32;20274;-60
2022/01/11 01:06:48;;;;;;;12.93;10.00;;;;;;;3.60;88.42;96419.09;4345630;32;20196;-61
2022/01/11 01:09:14;;;;;;;15.47;10.73;;;;;;;3.82;87.34;96413.34;4299979;32;20280;-61
2022/01/11 01:11:43;;;;;;;14.57;10.33;;;;;;;3.74;87.24;96419.72;4353323;32;20261;-61
2022/01/11 01:14:16;;;;;;;14.47;10.80;;;;;;;3.83;87.14;96420.19;4333000;32;20287;-60
2022/01/11 01:16:42;;;;;;;13.87;10.53;;;;;;;3.67;87.18;96421.63;4318765;32;20274;-61
2022/01/11 01:19:12;;;;;;;15.70;9.90;;;;;;;3.77;87.43;96424.50;4304299;32;20296;-60
2022/01/11 01:21:38;;;;;;;13.33;10.37;;;;;;;3.68;87.29;96424.03;4310763;32;20266;-61
2022/01/11 01:24:10;;;;;;;13.40;9.40;;;;;;;3.68;87.57;96420.59;4350512;32;20338;-61
2022/01/11 01:26:39;;;;;;;11.20;9.57;;;;;;;3.83;87.10;96423.63;4349572;32;20261;-60
2022/01/11 01:29:07;;;;;;;15.00;9.53;;;;;;;3.73;86.85;96426.00;4277525;32;20269;-61
2022/01/11 01:31:33;;;;;;;12.03;9.60;;;;;;;3.55;87.12;96429.44;4348741;32;20269;-61
2022/01/11 01:34:00;;;;;;;10.00;8.97;;;;;;;3.67;87.44;96424.25;4355763;32;20355;-62
2022/01/11 01:36:26;;;;;;;11.53;9.33;;;;;;;3.91;86.94;96422.53;4358380;32;20247;-60
2022/01/11 01:38:51;;;;;;;11.70;9.50;;;;;;;3.73;86.90;96431.25;4341636;32;20272;-60
2022/01/11 01:41:21;;;;;;;9.93;8.93;;;;;;;3.63;87.21;96431.75;4328014;32;20284;-60
2022/01/11 01:43:51;;;;;;;10.97;8.97;;;;;;;3.66;86.95;96427.91;4349199;32;20177;-60
2022/01/11 01:46:18;;;;;;;12.87;9.40;;;;;;;3.34;88.15;96430.69;4356028;32;20291;-61
2022/01/11 01:48:45;;;;;;;12.00;9.23;;;;;;;3.50;88.30;96439.00;4350041;32;20387;-60
2022/01/11 01:51:15;;;;;;;11.93;9.77;;;;;;;3.58;87.84;96433.44;4356951;32;20312;-60
2022/01/11 01:53:46;;;;;;;10.33;9.30;;;;;;;3.49;87.87;96432.16;4318434;32;20286;-60
2022/01/11 01:56:18;;;;;;;10.50;9.23;;;;;;;3.38;88.24;96423.19;4328846;32;20296;-60
2022/01/11 01:58:55;;;;;;;12.10;9.23;;;;;;;3.56;87.71;96425.78;4346396;32;20352;-60
2022/01/11 02:01:22;;;;;;;10.23;9.10;;;;;;;3.66;87.28;96426.06;4347059;32;20359;-60
2022/01/11 02:03:48;;;;;;;12.77;9.97;;;;;;;3.81;86.80;96425.66;4318914;32;20274;-60
2022/01/11 02:06:25;;;;;;;10.60;9.07;;;;;;;3.51;87.11;96435.38;4343726;32;20272;-60
2022/01/11 02:08:52;;;;;;;12.17;10.50;;;;;;;3.47;87.94;96434.19;4342734;32;20444;-60
2022/01/11 02:11:24;;;;;;;11.13;9.73;;;;;;;3.50;88.05;96431.12;4360493;32;20276;-60
2022/01/11 02:13:51;;;;;;;13.00;9.20;;;;;;;3.72;87.31;96435.69;4320707;32;20331;-60
2022/01/11 02:16:21;;;;;;;12.50;9.93;;;;;;;3.87;86.36;96431.84;4344442;32;20395;-60
2022/01/11 02:18:53;;;;;;;13.40;10.77;;;;;;;3.74;86.43;96432.84;4350707;32;20277;-60
2022/01/11 02:21:22;;;;;;;11.43;9.60;;;;;;;3.70;86.69;96431.69;4311082;32;20360;-61
2022/01/11 02:23:53;;;;;;;12.10;10.23;;;;;;;3.66;86.80;96447.06;4331674;32;20281;-60
2022/01/11 02:26:19;;;;;;;14.70;9.83;;;;;;;3.65;87.02;96442.03;4340986;32;20367;-60
2022/01/11 02:28:48;;;;;;;13.93;10.40;;;;;;;3.57;87.32;96448.38;4356289;32;20285;-60
2022/01/11 02:31:16;;;;;;;12.83;9.63;;;;;;;3.51;87.76;96445.84;4336995;32;20285;-60
2022/01/11 02:33:57;;;;;;;13.40;10.13;;;;;;;3.52;88.10;96453.50;4349616;32;20399;-60
2022/01/11 02:36:30;;;;;;;14.23;10.37;;;;;;;3.48;87.55;96448.91;4347956;32;20300;-58
2022/01/11 02:38:58;;;;;;;10.73;9.63;;;;;;;3.50;87.58;96454.75;4354710;32;20277;-60
2022/01/11 02:41:49;;;;;;;10.53;9.47;;;;;;;3.29;88.07;96451.56;4351231;32;20294;-60
2022/01/11 02:44:16;;;;;;;14.30;9.80;;;;;;;3.45;87.86;96453.56;4355629;32;20269;-60
2022/01/11 02:46:42;;;;;;;11.30;9.50;;;;;;;3.53;87.68;96457.72;4348660;32;20336;-60
2022/01/11 02:49:09;;;;;;;15.13;10.70;;;;;;;3.43;87.44;96463.47;4350312;32;20291;-60
2022/01/11 02:51:35;;;;;;;12.10;10.33;;;;;;;3.50;87.70;96452.13;4344015;32;20292;-60
2022/01/11 02:54:05;;;;;;;11.13;9.63;;;;;;;3.62;87.09;96460.84;4341575;32;20332;-60
2022/01/11 02:56:31;;;;;;;13.23;10.43;;;;;;;3.78;86.86;96461.03;4343515;32;20301;-60
2022/01/11 02:59:18;;;;;;;14.27;9.73;;;;;;;3.80;86.11;96458.19;4323598;32;20313;-60
2022/01/11 03:01:45;;;;;;;11.60;9.47;;;;;;;3.96;85.68;96456.75;4333543;32;20189;-60
2022/01/11 03:04:10;;;;;;;14.03;9.73;;;;;;;3.80;85.91;96464.22;4337371;32;20352;-60
2022/01/11 03:06:37;;;;;;;12.83;9.97;;;;;;;3.77;85.78;96463.87;4349675;32;20309;-60
2022/01/11 03:09:04;;;;;;;14.67;10.63;;;;;;;3.59;86.63;96461.28;4340142;32;20276;-61
2022/01/11 03:11:32;;;;;;;14.73;10.40;;;;;;;3.63;86.77;96459.81;4353393;32;20323;-60
2022/01/11 03:14:19;;;;;;;12.70;10.60;;;;;;;3.67;86.81;96468.84;4353743;32;20324;-60
2022/01/11 03:16:45;;;;;;;11.17;9.70;;;;;;;3.70;86.76;96461.34;4366819;32;20300;-60
2022/01/11 03:19:16;;;;;;;14.00;10.80;;;;;;;3.75;86.30;96465.91;4334807;32;20270;-60
2022/01/11 03:21:43;;;;;;;15.63;10.97;;;;;;;3.62;86.31;96463.47;4349026;32;20320;-60
2022/01/11 03:24:11;;;;;;;14.50;10.80;;;;;;;3.52;87.21;96463.19;4357411;32;20279;-60
2022/01/11 03:26:40;;;;;;;13.27;10.83;;;;;;;3.37;88.04;96472.22;4360153;32;20357;-60
2022/01/11 03:29:07;;;;;;;15.03;10.83;;;;;;;3.49;87.48;96468.88;4365544;32;20261;-60
2022/01/11 03:31:36;;;;;;;14.60;10.97;;;;;;;3.78;86.76;96473.34;4320442;32;20316;-60
2022/01/11 03:34:06;;;;;;;13.07;10.23;;;;;;;3.82;86.48;96477.13;4346726;32;20331;-61
2022/01/11 03:36:31;;;;;;;13.80;11.47;;;;;;;3.81;86.06;96475.53;4343681;32;20277;-60
2022/01/11 03:39:00;;;;;;;15.27;11.10;;;;;;;4.06;85.50;96468.31;4346302;32;20320;-60
2022/01/11 03:41:27;;;;;;;13.30;10.60;;;;;;;3.69;86.12;96467.62;4320468;32;20181;-60
2022/01/11 03:43:53;;;;;;;14.40;10.60;;;;;;;3.87;85.52;96476.47;4336777;32;20428;-60
2022/01/11 03:46:19;;;;;;;13.47;10.50;;;;;;;3.97;85.49;96467.03;4354740;32;20375;-60
2022/01/11 03:48:46;;;;;;;14.67;11.13;;;;;;;3.86;85.05;96478.28;4340363;32;20286;-60
2022/01/11 03:51:13;;;;;;;13.60;10.47;;;;;;;3.68;86.19;96473.06;4330622;32;20319;-60
2022/01/11 03:53:51;;;;;;;12.93;10.87;;;;;;;4.02;85.08;96472.41;4351837;32;20332;-60
2022/01/11 03:56:22;;;;;;;12.87;11.50;;;;;;;4.06;84.54;96478.81;4352195;32;20304;-60
2022/01/11 03:59:08;;;;;;;13.10;10.30;;;;;;;3.98;84.76;96476.50;4336216;32;20285;-60
2022/01/11 04:01:36;;;;;;;12.93;10.57;;;;;;;4.03;84.81;96478.47;4334211;32;20320;-60
2022/01/11 04:04:05;;;;;;;14.27;10.17;;;;;;;4.10;84.44;96474.72;4330023;32;20315;-60
2022/01/11 04:06:34;;;;;;;18.70;11.77;;;;;;;3.70;85.64;96478.91;4360668;32;20277;-60
2022/01/11 04:09:04;;;;;;;12.40;10.67;;;;;;;3.89;85.03;96479.69;4358356;32;20278;-62
2022/01/11 04:11:30;;;;;;;12.77;10.13;;;;;;;4.10;84.67;96479.97;4341997;32;20281;-60
2022/01/11 04:13:57;;;;;;;14.43;10.47;;;;;;;4.14;84.32;96470.66;4342057;32;20274;-60
2022/01/11 04:16:23;;;;;;;12.77;10.13;;;;;;;3.89;85.06;96471.81;4360414;32;20287;-61
2022/01/11 04:18:50;;;;;;;14.33;10.93;;;;;;;3.82;85.45;96471.87;4325870;32;20361;-61
2022/01/11 04:21:15;;;;;;;11.30;10.00;;;;;;;4.13;84.57;96482.16;4328540;32;20281;-60
2022/01/11 04:23:41;;;;;;;13.13;10.83;;;;;;;4.05;84.01;96477.22;4367175;32;20312;-61
2022/01/11 04:26:14;;;;;;;14.20;9.77;;;;;;;4.00;84.63;96477.09;4363302;32;20193;-60
2022/01/11 04:28:40;;;;;;;13.70;10.90;;;;;;;4.32;83.46;96477.66;4348240;32;20177;-61
2022/01/11 04:31:13;;;;;;;12.37;10.67;;;;;;;4.21;83.56;96470.53;4355368;32;20323;-61
2022/01/11 04:33:45;;;;;;;13.33;9.63;;;;;;;4.26;83.62;96477.75;4349298;32;20280;-60
2022/01/11 04:36:12;;;;;;;12.47;10.03;;;;;;;4.05;83.90;96484.28;4335250;32;20320;-60
2022/01/11 04:38:40;;;;;;;15.77;10.87;;;;;;;4.05;84.07;96476.41;4344666;32;20279;-60
2022/01/11 04:41:13;;;;;;;15.20;10.77;;;;;;;4.09;83.85;96481.00;4339224;32;20261;-60
2022/01/11 04:43:38;;;;;;;12.43;10.60;;;;;;;4.09;84.07;96486.25;4337808;32;20299;-60
2022/01/11 04:46:10;;;;;;;14.20;10.63;;;;;;;3.90;85.21;96486.53;4338476;32;20278;-60
2022/01/11 04:48:37;;;;;;;14.93;10.43;;;;;;;3.91;85.15;96490.75;4337535;32;20180;-61
2022/01/11 04:51:11;;;;;;;13.00;9.83;;;;;;;4.29;83.79;96488.59;4351136;32;20350;-61
2022/01/11 04:53:39;;;;;;;12.77;10.77;;;;;;;4.21;83.63;96496.00;4336752;32;20284;-60
2022/01/11 04:56:13;;;;;;;12.30;10.07;;;;;;;4.16;83.81;96498.50;4310182;32;20377;-60
2022/01/11 04:58:39;;;;;;;15.80;11.17;;;;;;;4.26;83.36;96489.03;4287614;32;20277;-60
2022/01/11 05:01:11;;;;;;;12.73;10.70;;;;;;;4.36;82.78;96494.56;4332047;32;20296;-60
2022/01/11 05:03:36;;;;;;;14.07;10.53;;;;;;;4.36;82.85;96497.19;4349092;32;20298;-60
2022/01/11 05:06:17;;;;;;;12.40;9.73;;;;;;;4.40;82.49;96500.16;4351955;32;20278;-60
2022/01/11 05:08:46;;;;;;;11.17;9.93;;;;;;;4.29;82.94;96504.34;4337364;32;20220;-60
2022/01/11 05:11:12;;;;;;;12.23;10.13;;;;;;;4.42;82.60;96501.53;4340796;32;20384;-60
2022/01/11 05:13:39;;;;;;;12.67;10.00;;;;;;;4.32;82.89;96503.13;4353098;32;20332;-60
2022/01/11 05:16:12;;;;;;;13.07;10.77;;;;;;;4.21;83.45;96506.50;4323190;32;20281;-61
2022/01/11 05:18:39;;;;;;;11.53;10.27;;;;;;;4.12;83.76;96508.66;4331173;32;20292;-60
2022/01/11 05:21:10;;;;;;;13.57;10.73;;;;;;;4.08;83.84;96510.91;4348588;32;20317;-60
2022/01/11 05:23:35;;;;;;;14.67;10.67;;;;;;;4.19;83.33;96514.59;4350237;32;20278;-60
2022/01/11 05:26:10;;;;;;;13.10;11.43;;;;;;;4.02;83.80;96519.66;4336024;32;20335;-61
2022/01/11 05:28:37;;;;;;;12.80;10.37;;;;;;;3.99;84.31;96517.47;4336342;32;20196;-60
2022/01/11 05:31:11;;;;;;;13.80;10.17;;;;;;;4.01;84.03;96523.31;4328558;32;20399;-60
2022/01/11 05:33:41;;;;;;;11.53;10.20;;;;;;;3.90;84.51;96520.66;4322369;32;20269;-60
2022/01/11 05:36:10;;;;;;;17.23;11.00;;;;;;;3.83;84.83;96522.53;4335892;32;20281;-60
2022/01/11 05:38:36;;;;;;;15.23;11.10;;;;;;;3.79;84.90;96520.34;4357512;32;20341;-60
2022/01/11 05:41:02;;;;;;;13.83;10.83;;;;;;;3.75;85.26;96519.19;4344598;32;20367;-61
2022/01/11 05:43:28;;;;;;;16.10;11.50;;;;;;;3.76;85.25;96525.25;4340279;32;20274;-60
2022/01/11 05:45:55;;;;;;;13.10;11.30;;;;;;;3.93;84.53;96525.47;4341989;32;20185;-60
2022/01/11 05:48:26;;;;;;;13.80;10.47;;;;;;;3.95;84.63;96520.78;4317002;32;20289;-60
2022/01/11 05:50:53;;;;;;;13.77;11.20;;;;;;;3.86;84.62;96529.97;4333121;32;22510;-60
2022/01/11 05:53:19;;;;;;;12.90;10.90;;;;;;;3.74;85.49;96541.19;4348464;32;20269;-60
2022/01/11 05:55:47;;;;;;;12.57;10.80;;;;;;;3.79;85.38;96536.09;4360536;32;20281;-60
2022/01/11 05:58:12;;;;;;;16.50;12.00;;;;;;;3.79;85.71;96545.78;4353873;32;20312;-60
2022/01/11 06:00:40;;;;;;;15.20;12.83;;;;;;;3.82;85.55;96547.97;4328236;32;20281;-60
2022/01/11 06:03:08;;;;;;;14.43;11.87;;;;;;;3.87;85.13;96550.75;4323588;32;20181;-60
2022/01/11 06:05:38;;;;;;;14.60;11.43;;;;;;;3.86;85.17;96543.09;4357056;32;20281;-60
2022/01/11 06:08:07;;;;;;;14.80;11.13;;;;;;;4.03;84.28;96558.03;4334368;32;20273;-60
2022/01/11 06:10:34;;;;;;;15.17;11.83;;;;;;;4.10;83.86;96557.94;4341804;32;20271;-61
2022/01/11 06:12:59;;;;;;;14.07;11.77;;;;;;;3.94;84.33;96563.81;4358653;32;20288;-60
2022/01/11 06:15:29;;;;;;;17.40;12.63;;;;;;;3.67;85.32;96565.94;4330792;32;20277;-60
2022/01/11 06:17:56;;;;;;;13.53;10.90;;;;;;;3.54;86.06;96566.06;4323873;32;20225;-60
2022/01/11 06:20:22;;;;;;;13.93;11.60;;;;;;;3.65;86.12;96570.59;4330687;32;20308;-60
2022/01/11 06:22:48;;;;;;;11.93;10.73;;;;;;;3.64;86.56;96569.78;4345057;32;20204;-60
2022/01/11 06:25:14;;;;;;;14.30;11.53;;;;;;;3.69;85.76;96571.75;4351482;32;20289;-60
2022/01/11 06:27:42;;;;;;;14.73;12.27;;;;;;;3.58;86.09;96570.66;4346719;32;20201;-60
2022/01/11 06:30:12;;;;;;;14.00;11.73;;;;;;;3.67;86.18;96569.34;4351752;32;20273;-60
2022/01/11 06:32:43;;;;;;;14.27;11.83;;;;;;;3.78;85.80;96576.47;4332323;32;20278;-60
2022/01/11 06:35:09;;;;;;;13.40;10.30;;;;;;;3.85;85.45;96578.25;4328924;32;20269;-60
2022/01/11 06:37:36;;;;;;;17.83;12.53;;;;;;;3.88;85.00;96589.09;4355843;32;20321;-59
2022/01/11 06:40:04;;;;;;;16.47;12.50;;;;;;;3.89;84.93;96582.84;4360309;32;20278;-60
2022/01/11 06:42:32;;;;;;;15.40;12.27;;;;;;;3.99;84.93;96585.72;4342449;32;20349;-60
2022/01/11 06:44:58;;;;;;;14.33;12.13;;;;;;;3.72;85.54;96587.06;4349480;32;20294;-60
2022/01/11 06:47:26;;;;;;;15.60;12.30;;;;;;;3.91;84.65;96580.78;4353349;32;20280;-59
2022/01/11 06:49:51;;;;;;;16.50;12.07;;;;;;;3.96;84.53;96586.16;4334131;32;20369;-59
2022/01/11 06:52:17;;;;;;;16.00;12.47;;;;;;;4.21;83.55;96580.03;4345636;32;20325;-59
2022/01/11 06:54:44;;;;;;;14.97;12.20;;;;;;;4.30;82.87;96586.56;4348761;32;20184;-60
2022/01/11 06:57:10;;;;;;;15.00;11.73;;;;;;;4.08;83.67;96592.31;4333625;32;20415;-59
2022/01/11 06:59:38;;;;;;;14.30;11.63;;;;;;;4.05;83.44;96602.44;4316103;32;20296;-60
2022/01/11 07:02:08;;;;;;;16.33;11.57;;;;;;;3.89;84.36;96600.41;4343333;32;20200;-60
2022/01/11 07:04:37;;;;;;;15.80;12.43;;;;;;;3.88;84.24;96609.31;4325682;32;20291;-60
2022/01/11 07:07:06;;;;;;;14.90;12.07;;;;;;;4.17;83.49;96608.53;4359704;32;20273;-60
2022/01/11 07:09:35;;;;;;;13.93;11.47;;;;;;;4.11;83.32;96612.88;4341120;32;20343;-60
2022/01/11 07:12:04;;;;;;;16.03;12.20;;;;;;;4.20;83.20;96609.94;4350341;32;20311;-60
2022/01/11 07:14:31;;;;;;;14.70;12.30;;;;;;;4.17;83.04;96612.97;4342859;32;20284;-60
2022/01/11 07:16:57;;;;;;;15.03;11.10;;;;;;;4.30;82.67;96624.16;4336476;32;20329;-59
2022/01/11 07:19:31;;;;;;;15.83;12.10;;;;;;;4.11;83.33;96623.38;4336337;32;20372;-59
2022/01/11 07:22:06;;;;;;;15.80;11.97;;;;;;;4.10;83.79;96621.75;4359208;32;20276;-59
2022/01/11 07:24:31;;;;;;;14.73;13.03;;;;;;;4.12;83.14;96629.44;4356145;32;20299;-59
2022/01/11 07:26:58;;;;;;;15.90;12.63;;;;;;;4.11;82.86;96631.25;4362549;32;20296;-59
2022/01/11 07:29:25;;;;;;;45.40;11.33;;;;;;;4.03;83.20;96642.03;4353787;32;20203;-58
2022/01/11 07:31:50;;;;;;;48.27;11.50;;;;;;;5.43;93.66;96634.63;4346736;32;20310;-57
2022/01/11 07:34:18;;;;;;;23.43;11.97;;;;;;;6.16;93.02;96631.53;4348204;32;20281;-58
2022/01/11 07:36:46;;;;;;;26.97;11.13;;;;;;;6.19;87.20;96633.69;4322545;32;20170;-58
2022/01/11 07:39:18;;;;;;;14.47;11.00;;;;;;;6.44;83.89;96630.75;4351371;32;20337;-58
2022/01/11 07:41:44;;;;;;;22.53;12.43;;;;;;;6.50;81.30;96635.09;4335877;32;20297;-57
2022/01/11 07:44:11;;;;;;;13.13;11.70;;;;;;;6.56;79.92;96633.34;4348381;32;20281;-57
2022/01/11 07:46:39;;;;;;;17.03;11.10;;;;;;;6.71;79.39;96638.09;4327657;32;20285;-58
2022/01/11 07:49:08;;;;;;;15.77;11.80;;;;;;;7.00;78.28;96636.25;4322894;32;20278;-58
2022/01/11 07:51:35;;;;;;;13.40;10.10;;;;;;;6.86;78.27;96646.28;4319099;33;20358;-58
2022/01/11 07:54:06;;;;;;;16.00;11.10;;;;;;;7.06;77.95;96640.59;4330593;32;20289;-59
2022/01/11 07:56:31;;;;;;;14.80;10.87;;;;;;;7.39;75.95;96630.03;4329625;32;20289;-57
2022/01/11 07:58:58;;;;;;;12.20;9.93;;;;;;;7.26;74.04;96637.50;4323019;32;20286;-58
2022/01/11 08:01:24;;;;;;;12.30;10.53;;;;;;;7.61;74.73;96631.94;4304027;32;20181;-56
2022/01/11 08:03:51;;;;;;;12.17;10.53;;;;;;;7.70;73.79;96633.94;4324688;32;20352;-58
2022/01/11 08:06:24;;;;;;;15.80;11.40;;;;;;;7.58;72.95;96638.50;4350460;32;20281;-58
2022/01/11 08:08:51;;;;;;;13.80;10.13;;;;;;;7.22;72.17;96645.06;4336875;32;20353;-58
2022/01/11 08:11:29;;;;;;;12.47;10.03;;;;;;;7.77;72.53;96639.06;4307806;32;20392;-58
2022/01/11 08:13:59;;;;;;;16.53;11.50;;;;;;;7.76;73.53;96643.53;4324121;32;20282;-58
2022/01/11 08:16:29;;;;;;;10.67;9.63;;;;;;;7.63;72.44;96645.72;4305882;32;20282;-58
2022/01/11 08:18:54;;;;;;;11.93;10.73;;;;;;;7.69;71.46;96644.75;4335504;32;20281;-58
2022/01/11 08:21:24;;;;;;;11.70;10.47;;;;;;;7.74;72.31;96642.97;4326004;32;20384;-57
2022/01/11 08:23:49;;;;;;;13.50;10.83;;;;;;;7.93;71.23;96646.13;4345783;32;20314;-58
2022/01/11 08:26:28;;;;;;;14.73;9.73;;;;;;;7.82;69.52;96650.50;4348940;32;20301;-58
2022/01/11 08:28:54;;;;;;;11.73;10.63;;;;;;;7.63;71.81;96648.34;4311566;32;20207;-58
2022/01/11 08:31:27;;;;;;;11.23;10.10;;;;;;;7.85;69.86;96638.66;4325274;32;20365;-58
2022/01/11 08:33:55;;;;;;;11.13;10.03;;;;;;;7.85;68.95;96649.22;4320711;32;20305;-58
2022/01/11 08:36:27;;;;;;;12.50;11.30;;;;;;;7.51;69.78;96648.44;4287545;32;20344;-61
2022/01/11 08:38:54;;;;;;;12.63;9.70;;;;;;;7.61;68.18;96653.06;4326486;32;20434;-61
2022/01/11 08:41:31;;;;;;;11.93;9.70;;;;;;;6.73;68.41;96665.84;4307098;32;20402;-62
2022/01/11 08:43:58;;;;;;;11.80;10.57;;;;;;;6.17;71.25;96656.84;4326691;32;20286;-59
2022/01/11 08:46:29;;;;;;;11.80;10.60;;;;;;;5.64;73.24;96664.03;4323154;32;20353;-59
2022/01/11 08:48:56;;;;;;;13.17;10.53;;;;;;;5.55;74.45;96666.22;4318323;32;20412;-60
2022/01/11 08:51:31;;;;;;;12.87;11.47;;;;;;;5.21;75.49;96665.13;4299223;32;20335;-61
2022/01/11 08:53:56;;;;;;;12.90;11.47;;;;;;;5.23;76.11;96676.22;4279759;33;20286;-61
2022/01/11 08:56:32;;;;;;;17.83;11.77;;;;;;;5.04;76.47;96677.31;4323912;32;20370;-61
2022/01/11 08:59:02;;;;;;;13.80;11.30;;;;;;;4.75;77.83;96682.38;4335752;32;20190;-58
2022/01/11 09:01:31;;;;;;;14.43;10.93;;;;;;;4.67;78.48;96690.56;4301878;32;20296;-60
2022/01/11 09:03:58;;;;;;;13.27;11.80;;;;;;;4.49;78.25;96690.59;4325274;32;20294;-61
2022/01/11 09:06:24;;;;;;;14.70;12.37;;;;;;;4.66;78.72;96691.59;4298860;32;20286;-61
2022/01/11 09:08:51;;;;;;;12.57;10.47;;;;;;;4.43;79.49;96699.34;4278278;32;20356;-59
2022/01/11 09:11:42;;;;;;;12.10;10.83;;;;;;;4.46;79.61;96693.66;4304212;32;20277;-59
2022/01/11 09:14:09;;;;;;;10.93;9.77;;;;;;;4.79;77.91;96696.66;4332745;32;20305;-60
2022/01/11 09:16:37;;;;;;;12.07;10.63;;;;;;;4.80;77.63;96705.34;4295056;32;20336;-59
2022/01/11 09:19:02;;;;;;;12.90;10.57;;;;;;;4.79;77.84;96701.94;4325644;32;20285;-59
2022/01/11 09:21:32;;;;;;;12.33;10.97;;;;;;;4.89;77.36;96708.50;4295520;32;20349;-66
2022/01/11 09:24:00;;;;;;;12.07;10.47;;;;;;;4.72;78.42;96703.06;4314464;33;20304;-60
2022/01/11 09:26:30;;;;;;;12.87;11.47;;;;;;;4.51;79.35;96706.16;4237981;33;20345;-59
2022/01/11 09:28:57;;;;;;;17.40;11.57;;;;;;;4.35;79.57;96713.59;4319341;32;20372;-62
2022/01/11 09:31:23;;;;;;;13.67;11.13;;;;;;;4.46;80.09;96712.84;4327533;32;20288;-61
2022/01/11 09:33:50;;;;;;;12.80;11.47;;;;;;;4.43;79.76;96713.28;4341610;32;20300;-60
2022/01/11 09:36:23;;;;;;;13.60;12.20;;;;;;;4.56;79.16;96717.59;4303920;32;20274;-65
2022/01/11 09:38:52;;;;;;;15.47;11.10;;;;;;;4.58;79.59;96712.09;4286177;32;20305;-59
2022/01/11 09:41:26;;;;;;;13.97;11.70;;;;;;;4.72;79.33;96719.62;4310218;32;20348;-62
2022/01/11 09:43:51;;;;;;;11.77;10.57;;;;;;;4.62;79.97;96719.34;4370265;32;20344;-60
2022/01/11 09:46:30;;;;;;;14.23;11.77;;;;;;;4.67;79.60;96718.69;4287584;32;20303;-59
2022/01/11 09:48:57;;;;;;;16.03;11.90;;;;;;;4.91;78.92;96714.34;4301536;32;20209;-61
2022/01/11 09:51:25;;;;;;;12.30;7.07;;;;;;;4.64;79.44;96712.03;4286535;32;20280;-60
2022/01/11 09:53:51;;;;;;;25.17;11.07;;;;;;;7.74;90.81;96702.91;4351131;32;20286;-61
2022/01/11 09:56:33;;;;;;;12.70;10.23;;;;;;;10.25;89.06;96699.03;4330589;32;20273;-62
2022/01/11 09:58:58;;;;;;;13.87;8.53;;;;;;;11.30;74.50;96694.38;4304431;32;20296;-62
2022/01/11 10:01:27;;;;;;;9.53;7.93;;;;;;;12.64;69.93;96692.94;4322480;32;20305;-62
2022/01/11 10:04:06;;;;;;;9.83;7.80;;;;;;;13.50;60.12;96696.25;4342178;32;20204;-62
2022/01/11 10:06:44;;;;;;;8.00;7.20;;;;;;;13.61;61.12;96692.44;4339700;32;20188;-62
2022/01/11 10:09:18;;;;;;;10.97;9.60;;;;;;;13.68;59.12;96688.38;4315711;32;20186;-60
2022/01/11 10:11:46;;;;;;;10.60;9.63;;;;;;;11.89;55.36;96700.00;4339173;32;20329;-60
2022/01/11 10:14:32;;;;;;;8.83;8.00;;;;;;;12.32;53.19;96695.97;4323689;32;20239;-61
2022/01/11 10:17:15;;;;;;;13.77;8.93;;;;;;;12.50;55.39;96696.44;4328820;32;20181;-60
2022/01/11 10:19:47;;;;;;;11.27;10.27;;;;;;;11.45;56.75;96694.38;4339086;32;20200;-59
2022/01/11 10:22:15;;;;;;;9.20;8.30;;;;;;;7.97;61.18;96708.03;4345066;32;20229;-59
2022/01/11 10:24:46;;;;;;;11.53;10.03;;;;;;;8.60;65.08;96699.66;4337770;32;20231;-59
2022/01/11 10:27:21;;;;;;;8.87;7.97;;;;;;;8.31;66.05;96689.50;4319237;32;20172;-59
2022/01/11 10:30:23;;;;;;;11.53;10.33;;;;;;;8.49;65.01;96692.66;4360747;32;20302;-60
2022/01/11 10:32:53;;;;;;;10.50;9.50;;;;;;;7.97;63.48;96694.03;4338550;32;20188;-62
2022/01/11 10:35:23;;;;;;;14.40;12.77;;;;;;;7.07;65.53;96700.19;4350490;32;20196;-61
2022/01/11 10:37:52;;;;;;;11.23;10.03;;;;;;;6.47;68.23;96698.81;4340439;32;20281;-61
2022/01/11 10:40:37;;;;;;;12.00;9.73;;;;;;;6.34;68.89;96691.16;4323622;32;20271;-61
2022/01/11 10:43:10;;;;;;;13.87;9.90;;;;;;;6.07;70.08;96690.84;4330797;32;20295;-61
2022/01/11 10:45:42;;;;;;;10.60;9.60;;;;;;;5.68;71.83;96702.84;4312217;32;20388;-60
2022/01/11 10:48:15;;;;;;;9.57;8.67;;;;;;;5.51;71.98;96692.19;4318626;32;20349;-59
2022/01/11 10:50:52;;;;;;;13.30;10.50;;;;;;;5.23;72.92;96699.09;4346292;32;20311;-60
2022/01/11 10:53:26;;;;;;;10.97;9.87;;;;;;;5.05;73.98;96692.87;4328904;32;20375;-59
2022/01/11 10:56:02;;;;;;;10.53;9.43;;;;;;;5.16;73.63;96699.22;4319436;32;20325;-61
2022/01/11 10:58:33;;;;;;;10.87;9.33;;;;;;;4.89;74.64;96697.97;4337274;32;20273;-59
2022/01/11 11:00:59;;;;;;;10.00;8.77;;;;;;;4.93;74.41;96699.13;4337352;32;20281;-60
2022/01/11 11:03:27;;;;;;;9.03;7.90;;;;;;;4.98;73.69;96702.72;4341050;32;20268;-63
2022/01/11 11:05:59;;;;;;;9.60;7.53;;;;;;;5.04;72.85;96706.25;4342287;32;20203;-60
2022/01/11 11:08:34;;;;;;;9.03;7.20;;;;;;;4.77;72.47;96705.81;4250590;33;20282;-61
2022/01/11 11:11:25;;;;;;;9.37;8.37;;;;;;;4.57;72.77;96711.34;4304732;32;20303;-60
2022/01/11 11:13:54;;;;;;;8.20;7.40;;;;;;;4.26;73.74;96719.34;4329102;32;20343;-60
2022/01/11 11:16:29;;;;;;;9.30;7.83;;;;;;;4.59;73.66;96719.78;4350565;32;20297;-61
2022/01/11 11:18:58;;;;;;;9.13;8.07;;;;;;;4.41;74.33;96719.78;4298790;32;20300;-61
2022/01/11 11:21:37;;;;;;;9.67;8.67;;;;;;;4.57;74.42;96719.22;4304151;32;20277;-60
2022/01/11 11:24:11;;;;;;;10.60;8.13;;;;;;;4.54;74.48;96717.03;4307768;32;20324;-61
2022/01/11 11:26:49;;;;;;;8.87;7.70;;;;;;;4.23;75.56;96714.53;4321113;32;20265;-61
2022/01/11 11:29:19;;;;;;;10.00;8.40;;;;;;;4.18;75.05;96714.38;4331004;32;20269;-60
2022/01/11 11:31:47;;;;;;;9.47;8.07;;;;;;;4.40;75.13;96718.19;4311158;32;22260;-61
2022/01/11 11:34:13;;;;;;;15.83;13.10;;;;;;;4.55;74.31;96718.63;4324873;32;20280;-60
2022/01/11 11:36:41;;;;;;;8.97;8.10;;;;;;;4.69;73.58;96714.81;4308656;32;20311;-61
2022/01/11 11:39:16;;;;;;;8.97;7.90;;;;;;;4.75;72.06;96708.69;4318805;32;20269;-60
2022/01/11 11:41:50;;;;;;;8.87;7.57;;;;;;;4.63;72.26;96715.69;4317849;32;20276;-60
2022/01/11 11:44:24;;;;;;;9.10;7.37;;;;;;;4.62;72.40;96714.06;4333565;32;20292;-59